sensor_id;sensor_type;location;lat;lon;timestamp;P1;durP1;ratioP1;P2;durP2;ratioP2
65613;SDS011;52283;49.292;10.572;2023-01-19T00:01:25;27.98;;;13.55;;
65613;SDS011;52283;49.292;10.572;2023-01-19T00:03:52;30.98;;;13.00;;
65613;SDS011;52283;49.292;10.572;2023-01-19T00:06:18;30.63;;;14.50;;
65613;SDS011;52283;49.292;10.572;2023-01-19T00:08:44;22.17;;;11.93;;
65613;SDS011;52283;49.292;10.572;2023-01-19T00:11:15;27.83;;;13.13;;
65613;SDS011;52283;49.292;10.572;2023-01-19T00:13:42;30.23;;;12.48;;
65613;SDS011;52283;49.292;10.572;2023-01-19T00:16:13;29.35;;;14.35;;
65613;SDS011;52283;49.292;10.572;2023-01-19T00:18:41;30.58;;;13.35;;
65613;SDS011;52283;49.292;10.572;2023-01-19T00:21:07;33.95;;;13.50;;
65613;SDS011;52283;49.292;10.572;2023-01-19T00:23:34;31.10;;;13.68;;
65613;SDS011;52283;49.292;10.572;2023-01-19T00:26:00;35.53;;;14.85;;
65613;SDS011;52283;49.292;10.572;2023-01-19T00:28:28;31.55;;;15.02;;
65613;SDS011;52283;49.292;10.572;2023-01-19T00:30:55;29.40;;;14.98;;
65613;SDS011;52283;49.292;10.572;2023-01-19T00:33:21;31.77;;;13.60;;
65613;SDS011;52283;49.292;10.572;2023-01-19T00:35:49;29.27;;;13.73;;
65613;SDS011;52283;49.292;10.572;2023-01-19T00:38:16;31.45;;;14.05;;
65613;SDS011;52283;49.292;10.572;2023-01-19T00:40:43;24.88;;;13.20;;
65613;SDS011;52283;49.292;10.572;2023-01-19T00:43:09;31.05;;;13.57;;
65613;SDS011;52283;49.292;10.572;2023-01-19T00:45:37;23.88;;;12.63;;
65613;SDS011;52283;49.292;10.572;2023-01-19T00:48:04;31.10;;;15.07;;
65613;SDS011;52283;49.292;10.572;2023-01-19T00:50:31;26.85;;;12.23;;
65613;SDS011;52283;49.292;10.572;2023-01-19T00:52:58;34.83;;;13.27;;
65613;SDS011;52283;49.292;10.572;2023-01-19T00:55:26;27.23;;;13.18;;
65613;SDS011;52283;49.292;10.572;2023-01-19T00:57:53;28.92;;;14.50;;
65613;SDS011;52283;49.292;10.572;2023-01-19T01:00:20;31.52;;;12.80;;
65613;SDS011;52283;49.292;10.572;2023-01-19T01:02:49;31.50;;;14.77;;
65613;SDS011;52283;49.292;10.572;2023-01-19T01:05:17;25.23;;;10.98;;
65613;SDS011;52283;49.292;10.572;2023-01-19T01:07:45;35.55;;;14.18;;
65613;SDS011;52283;49.292;10.572;2023-01-19T01:10:14;31.00;;;11.32;;
65613;SDS011;52283;49.292;10.572;2023-01-19T01:12:42;30.88;;;12.18;;
65613;SDS011;52283;49.292;10.572;2023-01-19T01:15:09;22.50;;;10.80;;
65613;SDS011;52283;49.292;10.572;2023-01-19T01:17:38;23.38;;;11.25;;
65613;SDS011;52283;49.292;10.572;2023-01-19T01:20:13;24.23;;;11.63;;
65613;SDS011;52283;49.292;10.572;2023-01-19T01:22:42;24.55;;;11.95;;
65613;SDS011;52283;49.292;10.572;2023-01-19T01:25:10;18.60;;;11.02;;
65613;SDS011;52283;49.292;10.572;2023-01-19T01:27:37;23.95;;;12.00;;
65613;SDS011;52283;49.292;10.572;2023-01-19T01:30:04;23.52;;;11.90;;
65613;SDS011;52283;49.292;10.572;2023-01-19T01:32:31;24.13;;;12.23;;
65613;SDS011;52283;49.292;10.572;2023-01-19T01:34:57;31.92;;;12.70;;
65613;SDS011;52283;49.292;10.572;2023-01-19T01:37:25;23.88;;;11.90;;
65613;SDS011;52283;49.292;10.572;2023-01-19T01:39:52;22.15;;;11.00;;
65613;SDS011;52283;49.292;10.572;2023-01-19T01:42:23;23.05;;;10.65;;
65613;SDS011;52283;49.292;10.572;2023-01-19T01:44:52;27.73;;;13.00;;
65613;SDS011;52283;49.292;10.572;2023-01-19T01:47:22;27.83;;;10.93;;
65613;SDS011;52283;49.292;10.572;2023-01-19T01:49:56;27.08;;;11.43;;
65613;SDS011;52283;49.292;10.572;2023-01-19T01:52:32;23.05;;;11.68;;
65613;SDS011;52283;49.292;10.572;2023-01-19T01:55:03;21.90;;;12.23;;
65613;SDS011;52283;49.292;10.572;2023-01-19T01:57:32;25.27;;;12.50;;
65613;SDS011;52283;49.292;10.572;2023-01-19T02:00:02;21.75;;;10.68;;
65613;SDS011;52283;49.292;10.572;2023-01-19T02:02:29;27.13;;;11.38;;
65613;SDS011;52283;49.292;10.572;2023-01-19T02:05:16;27.23;;;11.68;;
65613;SDS011;52283;49.292;10.572;2023-01-19T02:07:49;29.77;;;12.50;;
65613;SDS011;52283;49.292;10.572;2023-01-19T02:10:37;24.80;;;11.38;;
65613;SDS011;52283;49.292;10.572;2023-01-19T02:13:22;26.02;;;12.35;;
65613;SDS011;52283;49.292;10.572;2023-01-19T02:15:50;25.63;;;12.50;;
65613;SDS011;52283;49.292;10.572;2023-01-19T02:18:18;26.33;;;12.00;;
65613;SDS011;52283;49.292;10.572;2023-01-19T02:20:49;27.98;;;12.95;;
65613;SDS011;52283;49.292;10.572;2023-01-19T02:23:28;28.20;;;12.55;;
65613;SDS011;52283;49.292;10.572;2023-01-19T02:25:59;26.95;;;13.23;;
65613;SDS011;52283;49.292;10.572;2023-01-19T02:28:30;25.10;;;11.75;;
65613;SDS011;52283;49.292;10.572;2023-01-19T02:30:57;26.35;;;12.23;;
65613;SDS011;52283;49.292;10.572;2023-01-19T02:33:23;23.88;;;12.88;;
65613;SDS011;52283;49.292;10.572;2023-01-19T02:35:50;27.40;;;13.02;;
65613;SDS011;52283;49.292;10.572;2023-01-19T02:38:18;26.40;;;11.45;;
65613;SDS011;52283;49.292;10.572;2023-01-19T02:40:47;22.80;;;13.48;;
65613;SDS011;52283;49.292;10.572;2023-01-19T02:43:15;27.63;;;13.13;;
65613;SDS011;52283;49.292;10.572;2023-01-19T02:45:44;34.53;;;13.45;;
65613;SDS011;52283;49.292;10.572;2023-01-19T02:48:12;20.73;;;11.57;;
65613;SDS011;52283;49.292;10.572;2023-01-19T02:50:41;26.40;;;12.88;;
65613;SDS011;52283;49.292;10.572;2023-01-19T02:56:22;29.00;;;13.15;;
65613;SDS011;52283;49.292;10.572;2023-01-19T02:59:00;28.48;;;13.25;;
65613;SDS011;52283;49.292;10.572;2023-01-19T03:01:33;33.15;;;12.95;;
65613;SDS011;52283;49.292;10.572;2023-01-19T03:04:10;31.08;;;13.50;;
65613;SDS011;52283;49.292;10.572;2023-01-19T03:06:48;28.63;;;13.30;;
65613;SDS011;52283;49.292;10.572;2023-01-19T03:09:21;22.08;;;12.23;;
65613;SDS011;52283;49.292;10.572;2023-01-19T03:11:57;28.85;;;12.75;;
65613;SDS011;52283;49.292;10.572;2023-01-19T03:14:30;19.67;;;10.95;;
65613;SDS011;52283;49.292;10.572;2023-01-19T03:17:00;25.23;;;12.40;;
65613;SDS011;52283;49.292;10.572;2023-01-19T03:19:31;21.70;;;11.75;;
65613;SDS011;52283;49.292;10.572;2023-01-19T03:22:02;20.55;;;10.60;;
65613;SDS011;52283;49.292;10.572;2023-01-19T03:24:32;23.27;;;11.63;;
65613;SDS011;52283;49.292;10.572;2023-01-19T03:27:04;25.33;;;10.82;;
65613;SDS011;52283;49.292;10.572;2023-01-19T03:29:35;24.75;;;11.32;;
65613;SDS011;52283;49.292;10.572;2023-01-19T03:32:06;23.00;;;11.23;;
65613;SDS011;52283;49.292;10.572;2023-01-19T03:34:37;24.48;;;12.05;;
65613;SDS011;52283;49.292;10.572;2023-01-19T03:37:06;29.30;;;11.52;;
65613;SDS011;52283;49.292;10.572;2023-01-19T03:39:34;25.65;;;11.82;;
65613;SDS011;52283;49.292;10.572;2023-01-19T03:42:03;27.05;;;13.57;;
65613;SDS011;52283;49.292;10.572;2023-01-19T03:44:32;31.55;;;13.65;;
65613;SDS011;52283;49.292;10.572;2023-01-19T03:47:01;25.42;;;12.82;;
65613;SDS011;52283;49.292;10.572;2023-01-19T03:49:30;29.77;;;13.60;;
65613;SDS011;52283;49.292;10.572;2023-01-19T03:51:58;26.38;;;14.05;;
65613;SDS011;52283;49.292;10.572;2023-01-19T03:54:25;26.70;;;12.93;;
65613;SDS011;52283;49.292;10.572;2023-01-19T03:56:51;35.58;;;12.60;;
65613;SDS011;52283;49.292;10.572;2023-01-19T03:59:19;24.58;;;12.35;;
65613;SDS011;52283;49.292;10.572;2023-01-19T04:01:46;31.80;;;13.25;;
65613;SDS011;52283;49.292;10.572;2023-01-19T04:04:13;26.42;;;12.02;;
65613;SDS011;52283;49.292;10.572;2023-01-19T04:06:40;26.27;;;10.45;;
65613;SDS011;52283;49.292;10.572;2023-01-19T04:09:07;27.75;;;12.63;;
65613;SDS011;52283;49.292;10.572;2023-01-19T04:11:33;30.08;;;13.38;;
65613;SDS011;52283;49.292;10.572;2023-01-19T04:14:00;29.88;;;12.73;;
65613;SDS011;52283;49.292;10.572;2023-01-19T04:16:28;24.88;;;11.35;;
65613;SDS011;52283;49.292;10.572;2023-01-19T04:18:54;29.52;;;13.43;;
65613;SDS011;52283;49.292;10.572;2023-01-19T04:21:21;28.90;;;11.98;;
65613;SDS011;52283;49.292;10.572;2023-01-19T04:23:47;28.33;;;12.40;;
65613;SDS011;52283;49.292;10.572;2023-01-19T04:26:14;29.65;;;12.48;;
65613;SDS011;52283;49.292;10.572;2023-01-19T04:28:41;28.88;;;12.77;;
65613;SDS011;52283;49.292;10.572;2023-01-19T04:31:07;27.30;;;13.02;;
65613;SDS011;52283;49.292;10.572;2023-01-19T04:33:35;27.92;;;12.18;;
65613;SDS011;52283;49.292;10.572;2023-01-19T04:36:02;28.02;;;12.93;;
65613;SDS011;52283;49.292;10.572;2023-01-19T04:38:29;29.98;;;12.15;;
65613;SDS011;52283;49.292;10.572;2023-01-19T04:40:55;25.95;;;12.75;;
65613;SDS011;52283;49.292;10.572;2023-01-19T04:43:22;31.05;;;13.73;;
65613;SDS011;52283;49.292;10.572;2023-01-19T04:45:49;28.13;;;12.57;;
65613;SDS011;52283;49.292;10.572;2023-01-19T04:48:16;29.63;;;13.27;;
65613;SDS011;52283;49.292;10.572;2023-01-19T04:50:45;27.83;;;13.35;;
65613;SDS011;52283;49.292;10.572;2023-01-19T04:53:11;29.40;;;14.93;;
65613;SDS011;52283;49.292;10.572;2023-01-19T04:55:40;23.73;;;12.00;;
65613;SDS011;52283;49.292;10.572;2023-01-19T04:58:06;24.63;;;12.82;;
65613;SDS011;52283;49.292;10.572;2023-01-19T05:00:33;24.38;;;11.93;;
65613;SDS011;52283;49.292;10.572;2023-01-19T05:03:00;32.83;;;13.50;;
65613;SDS011;52283;49.292;10.572;2023-01-19T05:05:26;28.90;;;14.80;;
65613;SDS011;52283;49.292;10.572;2023-01-19T05:07:54;27.77;;;12.50;;
65613;SDS011;52283;49.292;10.572;2023-01-19T05:10:21;26.30;;;12.68;;
65613;SDS011;52283;49.292;10.572;2023-01-19T05:12:47;23.52;;;12.43;;
65613;SDS011;52283;49.292;10.572;2023-01-19T05:15:15;26.02;;;12.32;;
65613;SDS011;52283;49.292;10.572;2023-01-19T05:17:41;31.33;;;12.77;;
65613;SDS011;52283;49.292;10.572;2023-01-19T05:20:08;22.02;;;11.68;;
65613;SDS011;52283;49.292;10.572;2023-01-19T05:22:36;28.88;;;11.82;;
65613;SDS011;52283;49.292;10.572;2023-01-19T05:25:04;24.98;;;11.00;;
65613;SDS011;52283;49.292;10.572;2023-01-19T05:27:32;26.10;;;11.90;;
65613;SDS011;52283;49.292;10.572;2023-01-19T05:29:59;27.30;;;12.60;;
65613;SDS011;52283;49.292;10.572;2023-01-19T05:32:25;31.83;;;13.57;;
65613;SDS011;52283;49.292;10.572;2023-01-19T05:34:52;22.42;;;11.52;;
65613;SDS011;52283;49.292;10.572;2023-01-19T05:37:18;24.30;;;11.75;;
65613;SDS011;52283;49.292;10.572;2023-01-19T05:39:45;25.33;;;11.68;;
65613;SDS011;52283;49.292;10.572;2023-01-19T05:42:12;25.75;;;12.55;;
65613;SDS011;52283;49.292;10.572;2023-01-19T05:44:39;29.17;;;12.30;;
65613;SDS011;52283;49.292;10.572;2023-01-19T05:47:05;27.92;;;12.68;;
65613;SDS011;52283;49.292;10.572;2023-01-19T05:49:32;30.48;;;13.07;;
65613;SDS011;52283;49.292;10.572;2023-01-19T05:51:59;29.58;;;12.70;;
65613;SDS011;52283;49.292;10.572;2023-01-19T05:54:25;24.85;;;12.90;;
65613;SDS011;52283;49.292;10.572;2023-01-19T05:56:52;35.63;;;13.15;;
65613;SDS011;52283;49.292;10.572;2023-01-19T05:59:20;29.42;;;13.88;;
65613;SDS011;52283;49.292;10.572;2023-01-19T06:01:48;36.72;;;13.30;;
65613;SDS011;52283;49.292;10.572;2023-01-19T06:04:14;24.27;;;12.32;;
65613;SDS011;52283;49.292;10.572;2023-01-19T06:06:41;29.17;;;13.32;;
65613;SDS011;52283;49.292;10.572;2023-01-19T06:09:07;29.92;;;13.00;;
65613;SDS011;52283;49.292;10.572;2023-01-19T06:11:34;30.35;;;12.65;;
65613;SDS011;52283;49.292;10.572;2023-01-19T06:14:01;30.10;;;12.60;;
65613;SDS011;52283;49.292;10.572;2023-01-19T06:16:29;30.67;;;12.57;;
65613;SDS011;52283;49.292;10.572;2023-01-19T06:18:55;22.15;;;12.00;;
65613;SDS011;52283;49.292;10.572;2023-01-19T06:21:21;25.58;;;11.45;;
65613;SDS011;52283;49.292;10.572;2023-01-19T06:23:48;21.75;;;10.95;;
65613;SDS011;52283;49.292;10.572;2023-01-19T06:26:14;22.40;;;9.93;;
65613;SDS011;52283;49.292;10.572;2023-01-19T06:28:41;23.70;;;11.32;;
65613;SDS011;52283;49.292;10.572;2023-01-19T06:31:07;21.48;;;10.43;;
65613;SDS011;52283;49.292;10.572;2023-01-19T06:33:35;22.77;;;11.18;;
65613;SDS011;52283;49.292;10.572;2023-01-19T06:36:02;23.92;;;10.68;;
65613;SDS011;52283;49.292;10.572;2023-01-19T06:38:28;19.33;;;10.90;;
65613;SDS011;52283;49.292;10.572;2023-01-19T06:40:56;21.48;;;10.13;;
65613;SDS011;52283;49.292;10.572;2023-01-19T06:43:23;30.70;;;10.85;;
65613;SDS011;52283;49.292;10.572;2023-01-19T06:45:51;29.15;;;10.43;;
65613;SDS011;52283;49.292;10.572;2023-01-19T06:48:17;18.25;;;10.23;;
65613;SDS011;52283;49.292;10.572;2023-01-19T06:50:45;22.33;;;9.90;;
65613;SDS011;52283;49.292;10.572;2023-01-19T06:53:13;20.52;;;9.85;;
65613;SDS011;52283;49.292;10.572;2023-01-19T06:55:40;20.40;;;10.45;;
65613;SDS011;52283;49.292;10.572;2023-01-19T06:58:08;21.20;;;10.45;;
65613;SDS011;52283;49.292;10.572;2023-01-19T07:00:35;20.70;;;11.43;;
65613;SDS011;52283;49.292;10.572;2023-01-19T07:03:01;24.48;;;11.77;;
65613;SDS011;52283;49.292;10.572;2023-01-19T07:05:28;21.80;;;11.02;;
65613;SDS011;52283;49.292;10.572;2023-01-19T07:07:56;21.52;;;10.75;;
65613;SDS011;52283;49.292;10.572;2023-01-19T07:10:23;25.63;;;11.63;;
65613;SDS011;52283;49.292;10.572;2023-01-19T07:12:49;19.02;;;10.30;;
65613;SDS011;52283;49.292;10.572;2023-01-19T07:15:18;20.00;;;9.07;;
65613;SDS011;52283;49.292;10.572;2023-01-19T07:17:47;22.48;;;10.27;;
65613;SDS011;52283;49.292;10.572;2023-01-19T07:20:14;22.27;;;9.52;;
65613;SDS011;52283;49.292;10.572;2023-01-19T07:22:41;17.02;;;8.30;;
65613;SDS011;52283;49.292;10.572;2023-01-19T07:25:11;20.85;;;11.88;;
65613;SDS011;52283;49.292;10.572;2023-01-19T07:27:38;22.83;;;11.13;;
65613;SDS011;52283;49.292;10.572;2023-01-19T07:30:05;18.63;;;10.32;;
65613;SDS011;52283;49.292;10.572;2023-01-19T07:32:32;18.67;;;8.30;;
65613;SDS011;52283;49.292;10.572;2023-01-19T07:34:58;19.30;;;10.25;;
65613;SDS011;52283;49.292;10.572;2023-01-19T07:37:25;19.63;;;9.32;;
65613;SDS011;52283;49.292;10.572;2023-01-19T07:39:51;16.85;;;9.38;;
65613;SDS011;52283;49.292;10.572;2023-01-19T07:42:19;24.27;;;8.90;;
65613;SDS011;52283;49.292;10.572;2023-01-19T07:44:45;16.63;;;8.45;;
65613;SDS011;52283;49.292;10.572;2023-01-19T07:47:12;19.42;;;8.85;;
65613;SDS011;52283;49.292;10.572;2023-01-19T07:49:38;19.30;;;9.10;;
65613;SDS011;52283;49.292;10.572;2023-01-19T07:52:05;16.08;;;7.82;;
65613;SDS011;52283;49.292;10.572;2023-01-19T07:54:32;19.38;;;9.77;;
65613;SDS011;52283;49.292;10.572;2023-01-19T07:56:58;17.35;;;8.05;;
65613;SDS011;52283;49.292;10.572;2023-01-19T07:59:27;18.80;;;8.88;;
65613;SDS011;52283;49.292;10.572;2023-01-19T08:01:54;14.32;;;8.38;;
65613;SDS011;52283;49.292;10.572;2023-01-19T08:04:23;16.65;;;8.23;;
65613;SDS011;52283;49.292;10.572;2023-01-19T08:06:49;11.30;;;6.80;;
65613;SDS011;52283;49.292;10.572;2023-01-19T08:09:16;16.33;;;8.07;;
65613;SDS011;52283;49.292;10.572;2023-01-19T08:11:43;16.63;;;8.20;;
65613;SDS011;52283;49.292;10.572;2023-01-19T08:14:09;17.88;;;7.50;;
65613;SDS011;52283;49.292;10.572;2023-01-19T08:16:37;14.63;;;6.95;;
65613;SDS011;52283;49.292;10.572;2023-01-19T08:19:03;19.55;;;7.80;;
65613;SDS011;52283;49.292;10.572;2023-01-19T08:21:30;11.93;;;7.00;;
65613;SDS011;52283;49.292;10.572;2023-01-19T08:23:57;11.13;;;6.93;;
65613;SDS011;52283;49.292;10.572;2023-01-19T08:26:25;14.80;;;7.93;;
65613;SDS011;52283;49.292;10.572;2023-01-19T08:28:54;12.73;;;7.25;;
65613;SDS011;52283;49.292;10.572;2023-01-19T08:31:22;10.82;;;5.82;;
65613;SDS011;52283;49.292;10.572;2023-01-19T08:33:50;14.93;;;6.93;;
65613;SDS011;52283;49.292;10.572;2023-01-19T08:36:16;19.70;;;7.63;;
65613;SDS011;52283;49.292;10.572;2023-01-19T08:38:43;13.60;;;7.65;;
65613;SDS011;52283;49.292;10.572;2023-01-19T08:41:09;13.05;;;5.80;;
65613;SDS011;52283;49.292;10.572;2023-01-19T08:43:36;11.43;;;5.53;;
65613;SDS011;52283;49.292;10.572;2023-01-19T08:46:03;14.38;;;6.65;;
65613;SDS011;52283;49.292;10.572;2023-01-19T08:48:30;12.05;;;7.55;;
65613;SDS011;52283;49.292;10.572;2023-01-19T08:50:58;11.10;;;6.18;;
65613;SDS011;52283;49.292;10.572;2023-01-19T08:53:26;10.23;;;4.75;;
65613;SDS011;52283;49.292;10.572;2023-01-19T08:55:53;10.65;;;5.50;;
65613;SDS011;52283;49.292;10.572;2023-01-19T08:58:23;10.20;;;6.70;;
65613;SDS011;52283;49.292;10.572;2023-01-19T09:00:50;8.73;;;5.70;;
65613;SDS011;52283;49.292;10.572;2023-01-19T09:03:17;12.15;;;6.10;;
65613;SDS011;52283;49.292;10.572;2023-01-19T09:05:45;13.68;;;6.75;;
65613;SDS011;52283;49.292;10.572;2023-01-19T09:08:13;8.73;;;5.53;;
65613;SDS011;52283;49.292;10.572;2023-01-19T09:10:43;13.70;;;6.50;;
65613;SDS011;52283;49.292;10.572;2023-01-19T09:13:11;13.35;;;5.47;;
65613;SDS011;52283;49.292;10.572;2023-01-19T09:15:38;14.88;;;5.75;;
65613;SDS011;52283;49.292;10.572;2023-01-19T09:18:06;10.88;;;4.65;;
65613;SDS011;52283;49.292;10.572;2023-01-19T09:20:37;11.63;;;5.20;;
65613;SDS011;52283;49.292;10.572;2023-01-19T09:23:06;13.63;;;6.95;;
65613;SDS011;52283;49.292;10.572;2023-01-19T09:25:36;9.25;;;5.70;;
65613;SDS011;52283;49.292;10.572;2023-01-19T09:28:03;12.95;;;5.55;;
65613;SDS011;52283;49.292;10.572;2023-01-19T09:30:30;11.13;;;7.22;;
65613;SDS011;52283;49.292;10.572;2023-01-19T09:33:00;8.65;;;5.50;;
65613;SDS011;52283;49.292;10.572;2023-01-19T09:35:28;12.80;;;5.93;;
65613;SDS011;52283;49.292;10.572;2023-01-19T09:37:55;13.73;;;6.53;;
65613;SDS011;52283;49.292;10.572;2023-01-19T09:40:22;10.68;;;6.10;;
65613;SDS011;52283;49.292;10.572;2023-01-19T09:42:52;11.57;;;6.13;;
65613;SDS011;52283;49.292;10.572;2023-01-19T09:45:26;13.90;;;6.28;;
65613;SDS011;52283;49.292;10.572;2023-01-19T09:47:59;15.18;;;6.15;;
65613;SDS011;52283;49.292;10.572;2023-01-19T09:50:28;9.25;;;6.00;;
65613;SDS011;52283;49.292;10.572;2023-01-19T09:53:01;15.55;;;7.93;;
65613;SDS011;52283;49.292;10.572;2023-01-19T09:55:37;12.00;;;6.85;;
65613;SDS011;52283;49.292;10.572;2023-01-19T09:58:09;15.10;;;6.60;;
65613;SDS011;52283;49.292;10.572;2023-01-19T10:00:40;14.07;;;7.00;;
65613;SDS011;52283;49.292;10.572;2023-01-19T10:03:11;12.40;;;6.75;;
65613;SDS011;52283;49.292;10.572;2023-01-19T10:05:41;19.35;;;8.40;;
65613;SDS011;52283;49.292;10.572;2023-01-19T10:08:15;14.27;;;6.78;;
65613;SDS011;52283;49.292;10.572;2023-01-19T10:10:47;8.73;;;5.05;;
65613;SDS011;52283;49.292;10.572;2023-01-19T10:13:22;14.80;;;6.93;;
65613;SDS011;52283;49.292;10.572;2023-01-19T10:16:01;14.13;;;6.38;;
65613;SDS011;52283;49.292;10.572;2023-01-19T10:18:38;11.55;;;5.65;;
65613;SDS011;52283;49.292;10.572;2023-01-19T10:21:12;12.45;;;6.43;;
65613;SDS011;52283;49.292;10.572;2023-01-19T10:23:43;12.82;;;7.25;;
65613;SDS011;52283;49.292;10.572;2023-01-19T10:26:14;13.95;;;8.02;;
65613;SDS011;52283;49.292;10.572;2023-01-19T10:28:43;12.88;;;6.50;;
65613;SDS011;52283;49.292;10.572;2023-01-19T10:31:12;14.65;;;7.45;;
65613;SDS011;52283;49.292;10.572;2023-01-19T10:33:39;12.68;;;6.75;;
65613;SDS011;52283;49.292;10.572;2023-01-19T10:36:09;10.40;;;6.32;;
65613;SDS011;52283;49.292;10.572;2023-01-19T10:38:42;12.98;;;6.68;;
65613;SDS011;52283;49.292;10.572;2023-01-19T10:41:10;10.40;;;6.53;;
65613;SDS011;52283;49.292;10.572;2023-01-19T10:43:40;14.70;;;7.50;;
65613;SDS011;52283;49.292;10.572;2023-01-19T10:46:17;11.38;;;6.28;;
65613;SDS011;52283;49.292;10.572;2023-01-19T10:48:48;14.23;;;8.00;;
65613;SDS011;52283;49.292;10.572;2023-01-19T10:51:16;14.80;;;6.93;;
65613;SDS011;52283;49.292;10.572;2023-01-19T10:53:51;12.05;;;6.32;;
65613;SDS011;52283;49.292;10.572;2023-01-19T10:56:23;11.93;;;6.32;;
65613;SDS011;52283;49.292;10.572;2023-01-19T10:58:52;12.55;;;6.85;;
65613;SDS011;52283;49.292;10.572;2023-01-19T11:01:21;11.70;;;6.25;;
65613;SDS011;52283;49.292;10.572;2023-01-19T11:03:48;15.05;;;6.22;;
65613;SDS011;52283;49.292;10.572;2023-01-19T11:06:22;10.25;;;5.55;;
65613;SDS011;52283;49.292;10.572;2023-01-19T11:09:08;9.50;;;6.25;;
65613;SDS011;52283;49.292;10.572;2023-01-19T11:11:40;12.98;;;7.13;;
65613;SDS011;52283;49.292;10.572;2023-01-19T11:14:08;9.20;;;5.55;;
65613;SDS011;52283;49.292;10.572;2023-01-19T11:16:39;10.55;;;6.53;;
65613;SDS011;52283;49.292;10.572;2023-01-19T11:19:14;10.35;;;5.45;;
65613;SDS011;52283;49.292;10.572;2023-01-19T11:21:44;11.98;;;6.40;;
65613;SDS011;52283;49.292;10.572;2023-01-19T11:24:11;10.23;;;5.75;;
65613;SDS011;52283;49.292;10.572;2023-01-19T11:26:40;13.10;;;6.20;;
65613;SDS011;52283;49.292;10.572;2023-01-19T11:29:13;12.50;;;6.07;;
65613;SDS011;52283;49.292;10.572;2023-01-19T11:31:44;9.95;;;5.57;;
65613;SDS011;52283;49.292;10.572;2023-01-19T11:34:21;10.95;;;5.88;;
65613;SDS011;52283;49.292;10.572;2023-01-19T11:36:54;15.25;;;6.63;;
65613;SDS011;52283;49.292;10.572;2023-01-19T11:39:23;10.57;;;5.68;;
65613;SDS011;52283;49.292;10.572;2023-01-19T11:41:52;10.23;;;5.75;;
65613;SDS011;52283;49.292;10.572;2023-01-19T11:44:21;11.88;;;5.65;;
65613;SDS011;52283;49.292;10.572;2023-01-19T11:46:52;11.82;;;5.57;;
65613;SDS011;52283;49.292;10.572;2023-01-19T11:49:24;13.32;;;5.45;;
65613;SDS011;52283;49.292;10.572;2023-01-19T11:51:55;10.38;;;5.13;;
65613;SDS011;52283;49.292;10.572;2023-01-19T11:54:28;9.10;;;4.65;;
65613;SDS011;52283;49.292;10.572;2023-01-19T11:56:59;7.63;;;4.65;;
65613;SDS011;52283;49.292;10.572;2023-01-19T11:59:27;8.60;;;5.65;;
65613;SDS011;52283;49.292;10.572;2023-01-19T12:01:55;6.93;;;4.68;;
65613;SDS011;52283;49.292;10.572;2023-01-19T12:04:24;9.32;;;3.88;;
65613;SDS011;52283;49.292;10.572;2023-01-19T12:06:54;9.18;;;5.22;;
65613;SDS011;52283;49.292;10.572;2023-01-19T12:09:24;13.05;;;5.53;;
65613;SDS011;52283;49.292;10.572;2023-01-19T12:11:54;10.32;;;5.15;;
65613;SDS011;52283;49.292;10.572;2023-01-19T12:14:25;7.47;;;4.23;;
65613;SDS011;52283;49.292;10.572;2023-01-19T12:16:58;7.53;;;4.18;;
65613;SDS011;52283;49.292;10.572;2023-01-19T12:22:00;7.32;;;4.45;;
65613;SDS011;52283;49.292;10.572;2023-01-19T12:24:29;6.90;;;4.13;;
65613;SDS011;52283;49.292;10.572;2023-01-19T12:27:03;5.43;;;3.50;;
65613;SDS011;52283;49.292;10.572;2023-01-19T12:29:39;9.05;;;4.97;;
65613;SDS011;52283;49.292;10.572;2023-01-19T12:32:17;8.70;;;4.43;;
65613;SDS011;52283;49.292;10.572;2023-01-19T12:34:45;6.47;;;3.63;;
65613;SDS011;52283;49.292;10.572;2023-01-19T12:37:27;9.40;;;4.07;;
65613;SDS011;52283;49.292;10.572;2023-01-19T12:40:02;9.30;;;3.72;;
65613;SDS011;52283;49.292;10.572;2023-01-19T12:42:42;9.23;;;4.40;;
65613;SDS011;52283;49.292;10.572;2023-01-19T12:45:12;8.80;;;4.45;;
65613;SDS011;52283;49.292;10.572;2023-01-19T12:50:17;6.40;;;3.65;;
65613;SDS011;52283;49.292;10.572;2023-01-19T12:52:47;8.18;;;4.57;;
65613;SDS011;52283;49.292;10.572;2023-01-19T12:55:21;6.95;;;3.47;;
65613;SDS011;52283;49.292;10.572;2023-01-19T12:57:51;9.32;;;3.75;;
65613;SDS011;52283;49.292;10.572;2023-01-19T13:00:32;13.68;;;5.63;;
65613;SDS011;52283;49.292;10.572;2023-01-19T13:03:03;4.55;;;3.03;;
65613;SDS011;52283;49.292;10.572;2023-01-19T13:05:51;8.23;;;3.40;;
65613;SDS011;52283;49.292;10.572;2023-01-19T13:08:20;5.88;;;3.40;;
65613;SDS011;52283;49.292;10.572;2023-01-19T13:10:52;12.15;;;3.42;;
65613;SDS011;52283;49.292;10.572;2023-01-19T13:13:34;8.07;;;4.47;;
65613;SDS011;52283;49.292;10.572;2023-01-19T13:19:12;3.58;;;3.10;;
65613;SDS011;52283;49.292;10.572;2023-01-19T13:21:41;5.53;;;3.40;;
65613;SDS011;52283;49.292;10.572;2023-01-19T13:24:10;8.00;;;3.22;;
65613;SDS011;52283;49.292;10.572;2023-01-19T13:26:39;7.15;;;4.20;;
65613;SDS011;52283;49.292;10.572;2023-01-19T13:29:14;9.13;;;3.88;;
65613;SDS011;52283;49.292;10.572;2023-01-19T13:31:44;13.23;;;4.60;;
65613;SDS011;52283;49.292;10.572;2023-01-19T13:34:15;9.05;;;6.40;;
65613;SDS011;52283;49.292;10.572;2023-01-19T13:39:11;6.38;;;4.13;;
65613;SDS011;52283;49.292;10.572;2023-01-19T13:41:40;8.35;;;4.78;;
65613;SDS011;52283;49.292;10.572;2023-01-19T13:44:08;9.75;;;4.88;;
65613;SDS011;52283;49.292;10.572;2023-01-19T13:46:40;10.07;;;4.05;;
65613;SDS011;52283;49.292;10.572;2023-01-19T13:49:11;6.10;;;4.20;;
65613;SDS011;52283;49.292;10.572;2023-01-19T13:51:43;11.32;;;4.80;;
65613;SDS011;52283;49.292;10.572;2023-01-19T13:54:13;6.97;;;3.22;;
65613;SDS011;52283;49.292;10.572;2023-01-19T13:56:45;9.43;;;4.20;;
65613;SDS011;52283;49.292;10.572;2023-01-19T13:59:14;5.10;;;3.00;;
65613;SDS011;52283;49.292;10.572;2023-01-19T14:01:41;6.47;;;3.92;;
65613;SDS011;52283;49.292;10.572;2023-01-19T14:04:29;11.60;;;4.32;;
65613;SDS011;52283;49.292;10.572;2023-01-19T14:06:57;4.85;;;3.45;;
65613;SDS011;52283;49.292;10.572;2023-01-19T14:09:27;6.97;;;3.28;;
65613;SDS011;52283;49.292;10.572;2023-01-19T14:12:08;5.20;;;3.22;;
65613;SDS011;52283;49.292;10.572;2023-01-19T14:14:38;6.38;;;3.67;;
65613;SDS011;52283;49.292;10.572;2023-01-19T14:17:13;6.78;;;3.50;;
65613;SDS011;52283;49.292;10.572;2023-01-19T14:19:47;8.55;;;4.68;;
65613;SDS011;52283;49.292;10.572;2023-01-19T14:22:14;5.22;;;3.13;;
65613;SDS011;52283;49.292;10.572;2023-01-19T14:24:41;6.20;;;3.88;;
65613;SDS011;52283;49.292;10.572;2023-01-19T14:27:17;7.63;;;4.43;;
65613;SDS011;52283;49.292;10.572;2023-01-19T14:29:46;11.85;;;3.85;;
65613;SDS011;52283;49.292;10.572;2023-01-19T14:32:15;7.07;;;4.00;;
65613;SDS011;52283;49.292;10.572;2023-01-19T14:34:44;11.35;;;4.57;;
65613;SDS011;52283;49.292;10.572;2023-01-19T14:37:16;7.72;;;4.18;;
65613;SDS011;52283;49.292;10.572;2023-01-19T14:39:46;9.27;;;5.85;;
65613;SDS011;52283;49.292;10.572;2023-01-19T14:42:20;11.65;;;8.38;;
65613;SDS011;52283;49.292;10.572;2023-01-19T14:44:50;14.45;;;8.80;;